RYR45AM EGBB-EGPH
Flight info
| Callsign | RYR45AM |
|---|---|
| Flight time | 0h 56m |
| Altitude | 28000 |
| Route | LUVUM DCT TNT N57 POL UN601 RIBEL DCT INPIP |
| Aircraft | B738/M-SDE2E3FGHIRWXY/LB1 |
Departure
| Time | 2026-04-25 17:28 |
|---|---|
| Airport | Birmingham Airport (EGBB) |
Arrival
| Time | 2026-04-25 18:25 |
|---|---|
| Airport | Edinburgh Airport (EGPH) |
| Time | Latitude | Longitude | Altitude | Speed | Heading |
|---|---|---|---|---|---|
| 2026-04-25 17:04 | 52.45365 | -1.73888 | 335 ft | 0 kts | 145° |
| 2026-04-25 17:05 | 52.45647 | -1.73474 | 335 ft | 0 kts | 324° |
| 2026-04-25 17:06 | 52.45454 | -1.73992 | 335 ft | 0 kts | 324° |
| 2026-04-25 17:16 | 52.45450 | -1.73987 | 335 ft | 2 kts | 324° |
| 2026-04-25 17:16 | 52.45438 | -1.73970 | 335 ft | 3 kts | 313° |
| 2026-04-25 17:16 | 52.45427 | -1.73943 | 335 ft | 3 kts | 294° |
| 2026-04-25 17:17 | 52.45422 | -1.73911 | 335 ft | 3 kts | 274° |
| 2026-04-25 17:17 | 52.45424 | -1.73878 | 335 ft | 3 kts | 256° |
| 2026-04-25 17:17 | 52.45431 | -1.73847 | 335 ft | 3 kts | 239° |
| 2026-04-25 17:17 | 52.45435 | -1.73837 | 335 ft | 0 kts | 234° |
| 2026-04-25 17:20 | 52.45435 | -1.73838 | 335 ft | 1 kts | 234° |
| 2026-04-25 17:20 | 52.45425 | -1.73867 | 335 ft | 5 kts | 246° |
| 2026-04-25 17:20 | 52.45417 | -1.73948 | 335 ft | 9 kts | 266° |
| 2026-04-25 17:21 | 52.45412 | -1.74078 | 335 ft | 13 kts | 267° |
| 2026-04-25 17:21 | 52.45409 | -1.74253 | 335 ft | 16 kts | 286° |
| 2026-04-25 17:21 | 52.45453 | -1.74445 | 335 ft | 20 kts | 288° |
| 2026-04-25 17:21 | 52.45520 | -1.74621 | 335 ft | 7 kts | 323° |
| 2026-04-25 17:22 | 52.45563 | -1.74670 | 335 ft | 6 kts | 330° |
| 2026-04-25 17:22 | 52.45577 | -1.74686 | 335 ft | 2 kts | 324° |
| 2026-04-25 17:22 | 52.45579 | -1.74689 | 335 ft | 1 kts | 324° |
| 2026-04-25 17:22 | 52.45599 | -1.74712 | 335 ft | 6 kts | 324° |
| 2026-04-25 17:23 | 52.45633 | -1.74752 | 335 ft | 6 kts | 324° |
| 2026-04-25 17:23 | 52.45682 | -1.74811 | 335 ft | 11 kts | 324° |
| 2026-04-25 17:23 | 52.45754 | -1.74897 | 335 ft | 15 kts | 324° |
| 2026-04-25 17:23 | 52.45847 | -1.75007 | 335 ft | 18 kts | 324° |
| 2026-04-25 17:24 | 52.45958 | -1.75136 | 335 ft | 21 kts | 328° |
| 2026-04-25 17:24 | 52.46089 | -1.75265 | 335 ft | 23 kts | 325° |
| 2026-04-25 17:24 | 52.46229 | -1.75414 | 335 ft | 25 kts | 323° |
| 2026-04-25 17:24 | 52.46375 | -1.75578 | 335 ft | 26 kts | 326° |
| 2026-04-25 17:25 | 52.46526 | -1.75753 | 335 ft | 27 kts | 326° |
| 2026-04-25 17:25 | 52.46620 | -1.75950 | 335 ft | 19 kts | 237° |
| 2026-04-25 17:25 | 52.46542 | -1.76080 | 335 ft | 9 kts | 176° |
| 2026-04-25 17:25 | 52.46526 | -1.76069 | 335 ft | 0 kts | 146° |
| 2026-04-25 17:28 | 52.46342 | -1.75865 | 335 ft | 68 kts | 145° |
| 2026-04-25 17:28 | 52.45738 | -1.75198 | 335 ft | 139 kts | 145° |
| 2026-04-25 17:28 | 52.44805 | -1.74165 | 611 ft | 179 kts | 146° |
| 2026-04-25 17:28 | 52.43717 | -1.72968 | 1402 ft | 186 kts | 146° |
| 2026-04-25 17:29 | 52.42660 | -1.71791 | 2470 ft | 186 kts | 146° |
| 2026-04-25 17:29 | 52.41526 | -1.70520 | 3068 ft | 209 kts | 144° |
| 2026-04-25 17:29 | 52.40597 | -1.68625 | 3813 ft | 219 kts | 114° |
| 2026-04-25 17:29 | 52.40296 | -1.66145 | 4402 ft | 227 kts | 90° |
| 2026-04-25 17:30 | 52.40549 | -1.63614 | 4737 ft | 227 kts | 66° |
| 2026-04-25 17:30 | 52.41476 | -1.61545 | 4811 ft | 226 kts | 39° |
| 2026-04-25 17:30 | 52.42816 | -1.60245 | 4829 ft | 224 kts | 21° |
| 2026-04-25 17:30 | 52.44297 | -1.59522 | 4823 ft | 222 kts | 9° |
| 2026-04-25 17:31 | 52.45843 | -1.59344 | 4963 ft | 229 kts | 356° |
| 2026-04-25 17:31 | 52.47440 | -1.59554 | 5413 ft | 253 kts | 353° |
| 2026-04-25 17:31 | 52.49232 | -1.59833 | 6036 ft | 265 kts | 351° |
| 2026-04-25 17:31 | 52.51066 | -1.60352 | 6914 ft | 269 kts | 341° |
| 2026-04-25 17:32 | 52.52837 | -1.61333 | 7922 ft | 269 kts | 335° |
| 2026-04-25 17:32 | 52.54584 | -1.62524 | 8882 ft | 273 kts | 333° |
| 2026-04-25 17:32 | 52.56310 | -1.63775 | 9803 ft | 276 kts | 332° |
| 2026-04-25 17:32 | 52.58081 | -1.65056 | 10713 ft | 280 kts | 332° |
| 2026-04-25 17:33 | 52.59881 | -1.66355 | 11607 ft | 284 kts | 332° |
| 2026-04-25 17:33 | 52.61705 | -1.67670 | 12481 ft | 288 kts | 332° |
| 2026-04-25 17:33 | 52.63557 | -1.69008 | 13340 ft | 292 kts | 332° |
| 2026-04-25 17:33 | 52.65428 | -1.70354 | 14176 ft | 296 kts | 332° |
| 2026-04-25 17:34 | 52.67328 | -1.71724 | 14997 ft | 300 kts | 332° |
| 2026-04-25 17:34 | 52.69253 | -1.73105 | 15798 ft | 304 kts | 334° |
| 2026-04-25 17:34 | 52.71320 | -1.74022 | 16572 ft | 313 kts | 348° |
| 2026-04-25 17:34 | 52.73524 | -1.74156 | 17334 ft | 321 kts | 358° |
| 2026-04-25 17:35 | 52.75769 | -1.73836 | 18075 ft | 327 kts | 2° |
| 2026-04-25 17:35 | 52.78037 | -1.73331 | 18803 ft | 331 kts | 4° |
| 2026-04-25 17:35 | 52.80338 | -1.72778 | 19521 ft | 335 kts | 4° |
| 2026-04-25 17:35 | 52.82654 | -1.72230 | 20221 ft | 339 kts | 4° |
| 2026-04-25 17:36 | 52.85006 | -1.71680 | 20908 ft | 342 kts | 4° |
| 2026-04-25 17:36 | 52.87379 | -1.71129 | 21576 ft | 346 kts | 4° |
| 2026-04-25 17:36 | 52.89776 | -1.70577 | 22227 ft | 350 kts | 4° |
| 2026-04-25 17:36 | 52.92204 | -1.70019 | 22860 ft | 353 kts | 4° |
| 2026-04-25 17:37 | 52.94647 | -1.69458 | 23476 ft | 357 kts | 4° |
| 2026-04-25 17:37 | 52.97119 | -1.68892 | 24077 ft | 360 kts | 4° |
| 2026-04-25 17:37 | 52.99585 | -1.68328 | 24656 ft | 363 kts | 4° |
| 2026-04-25 17:37 | 53.02107 | -1.67763 | 25222 ft | 366 kts | 2° |
| 2026-04-25 17:38 | 53.04647 | -1.67715 | 25771 ft | 364 kts | 351° |
| 2026-04-25 17:38 | 53.05499 | -1.67881 | 25954 ft | 364 kts | 347° |
| 2026-04-25 17:38 | 53.09575 | -1.69616 | 26717 ft | 364 kts | 338° |
| 2026-04-25 17:38 | 53.11950 | -1.71012 | 27262 ft | 361 kts | 336° |
| 2026-04-25 17:39 | 53.14306 | -1.72488 | 27782 ft | 361 kts | 335° |
| 2026-04-25 17:39 | 53.16669 | -1.73974 | 27969 ft | 364 kts | 336° |
| 2026-04-25 17:39 | 53.19044 | -1.75451 | 27988 ft | 364 kts | 336° |
| 2026-04-25 17:39 | 53.21406 | -1.76921 | 27993 ft | 361 kts | 336° |
| 2026-04-25 17:40 | 53.23752 | -1.78367 | 27996 ft | 359 kts | 336° |
| 2026-04-25 17:40 | 53.26099 | -1.79820 | 27997 ft | 359 kts | 336° |
| 2026-04-25 17:40 | 53.28442 | -1.81279 | 27997 ft | 359 kts | 336° |
| 2026-04-25 17:40 | 53.30786 | -1.82742 | 27997 ft | 359 kts | 336° |
| 2026-04-25 17:41 | 53.33127 | -1.84208 | 27997 ft | 359 kts | 336° |
| 2026-04-25 17:41 | 53.35467 | -1.85677 | 27997 ft | 359 kts | 336° |
| 2026-04-25 17:41 | 53.37811 | -1.87152 | 27997 ft | 359 kts | 336° |
| 2026-04-25 17:41 | 53.40151 | -1.88626 | 27997 ft | 359 kts | 336° |
| 2026-04-25 17:42 | 53.42488 | -1.90099 | 27997 ft | 359 kts | 335° |
| 2026-04-25 17:42 | 53.44832 | -1.91579 | 27996 ft | 359 kts | 335° |
| 2026-04-25 17:42 | 53.47171 | -1.93057 | 27997 ft | 359 kts | 335° |
| 2026-04-25 17:42 | 53.49515 | -1.94538 | 27997 ft | 359 kts | 335° |
| 2026-04-25 17:43 | 53.51856 | -1.96019 | 27997 ft | 359 kts | 336° |
| 2026-04-25 17:43 | 53.54200 | -1.97490 | 27997 ft | 359 kts | 336° |
| 2026-04-25 17:43 | 53.56541 | -1.98966 | 27998 ft | 359 kts | 336° |
| 2026-04-25 17:43 | 53.58856 | -2.00431 | 27997 ft | 359 kts | 335° |
| 2026-04-25 17:44 | 53.61225 | -2.01935 | 27997 ft | 359 kts | 335° |
| 2026-04-25 17:44 | 53.63531 | -2.03402 | 27997 ft | 359 kts | 335° |
| 2026-04-25 17:44 | 53.65870 | -2.04893 | 27997 ft | 359 kts | 335° |
| 2026-04-25 17:44 | 53.68216 | -2.06390 | 27997 ft | 359 kts | 335° |
| 2026-04-25 17:45 | 53.70556 | -2.07884 | 27997 ft | 359 kts | 335° |
| 2026-04-25 17:45 | 53.71346 | -2.08387 | 27997 ft | 359 kts | 335° |
| 2026-04-25 17:45 | 53.75225 | -2.10891 | 27997 ft | 359 kts | 335° |
| 2026-04-25 17:45 | 53.77543 | -2.12467 | 27997 ft | 359 kts | 334° |
| 2026-04-25 17:46 | 53.79857 | -2.14048 | 27997 ft | 359 kts | 334° |
| 2026-04-25 17:46 | 53.82173 | -2.15631 | 27998 ft | 359 kts | 334° |
| 2026-04-25 17:46 | 53.84487 | -2.17213 | 27997 ft | 359 kts | 334° |
| 2026-04-25 17:46 | 53.86802 | -2.18796 | 27997 ft | 359 kts | 334° |
| 2026-04-25 17:47 | 53.89121 | -2.20376 | 27997 ft | 359 kts | 334° |
| 2026-04-25 17:47 | 53.91434 | -2.21960 | 27997 ft | 359 kts | 334° |
| 2026-04-25 17:47 | 53.93753 | -2.23552 | 27997 ft | 359 kts | 334° |
| 2026-04-25 17:47 | 53.96069 | -2.25145 | 27997 ft | 359 kts | 334° |
| 2026-04-25 17:48 | 54.00669 | -2.28313 | 27997 ft | 359 kts | 334° |
| 2026-04-25 17:48 | 54.02984 | -2.29909 | 27997 ft | 359 kts | 334° |
| 2026-04-25 17:48 | 54.05296 | -2.31506 | 27997 ft | 359 kts | 334° |
| 2026-04-25 17:49 | 54.07615 | -2.33110 | 27997 ft | 359 kts | 334° |
| 2026-04-25 17:49 | 54.09929 | -2.34714 | 27997 ft | 359 kts | 334° |
| 2026-04-25 17:49 | 54.12240 | -2.36318 | 27997 ft | 359 kts | 334° |
| 2026-04-25 17:49 | 54.14548 | -2.37923 | 27997 ft | 359 kts | 334° |
| 2026-04-25 17:50 | 54.16861 | -2.39534 | 27997 ft | 359 kts | 334° |
| 2026-04-25 17:50 | 54.19174 | -2.41146 | 27997 ft | 359 kts | 334° |
| 2026-04-25 17:50 | 54.21483 | -2.42758 | 27996 ft | 359 kts | 334° |
| 2026-04-25 17:50 | 54.23793 | -2.44374 | 27997 ft | 359 kts | 334° |
| 2026-04-25 17:51 | 54.26108 | -2.45994 | 27996 ft | 359 kts | 334° |
| 2026-04-25 17:51 | 54.28419 | -2.47614 | 27997 ft | 359 kts | 334° |
| 2026-04-25 17:51 | 54.30734 | -2.49238 | 27996 ft | 359 kts | 334° |
| 2026-04-25 17:51 | 54.33046 | -2.50862 | 27997 ft | 359 kts | 334° |
| 2026-04-25 17:52 | 54.35356 | -2.52466 | 27997 ft | 359 kts | 334° |
| 2026-04-25 17:52 | 54.36111 | -2.52991 | 27997 ft | 359 kts | 334° |
| 2026-04-25 17:52 | 54.39989 | -2.55697 | 27997 ft | 359 kts | 334° |
| 2026-04-25 17:52 | 54.42300 | -2.57315 | 27997 ft | 359 kts | 334° |
| 2026-04-25 17:53 | 54.44583 | -2.58918 | 27997 ft | 359 kts | 334° |
| 2026-04-25 17:53 | 54.46847 | -2.60511 | 27997 ft | 359 kts | 334° |
| 2026-04-25 17:53 | 54.49168 | -2.62147 | 27972 ft | 361 kts | 334° |
| 2026-04-25 17:53 | 54.51557 | -2.63833 | 27822 ft | 380 kts | 334° |
| 2026-04-25 17:54 | 54.53997 | -2.65560 | 27850 ft | 392 kts | 334° |
| 2026-04-25 17:54 | 54.55692 | -2.66760 | 27860 ft | 401 kts | 334° |
| 2026-04-25 17:54 | 54.58308 | -2.68609 | 27870 ft | 413 kts | 335° |
| 2026-04-25 17:54 | 54.61014 | -2.70513 | 27873 ft | 424 kts | 334° |
| 2026-04-25 17:55 | 54.63763 | -2.72460 | 27873 ft | 434 kts | 334° |
| 2026-04-25 17:55 | 54.66600 | -2.74478 | 27873 ft | 443 kts | 334° |
| 2026-04-25 17:55 | 54.69476 | -2.76533 | 27872 ft | 449 kts | 334° |
| 2026-04-25 17:55 | 54.72370 | -2.78607 | 27872 ft | 450 kts | 334° |
| 2026-04-25 17:56 | 54.75253 | -2.80677 | 27872 ft | 449 kts | 334° |
| 2026-04-25 17:56 | 54.78132 | -2.82748 | 27872 ft | 448 kts | 334° |
| 2026-04-25 17:56 | 54.81020 | -2.84827 | 27872 ft | 448 kts | 334° |
| 2026-04-25 17:56 | 54.83895 | -2.86899 | 27872 ft | 448 kts | 334° |
| 2026-04-25 17:57 | 54.86567 | -2.88827 | 27872 ft | 448 kts | 334° |
| 2026-04-25 17:57 | 54.89460 | -2.90900 | 27872 ft | 448 kts | 335° |
| 2026-04-25 17:57 | 54.92339 | -2.92968 | 27872 ft | 448 kts | 334° |
| 2026-04-25 17:57 | 54.94250 | -2.94347 | 27872 ft | 448 kts | 334° |
| 2026-04-25 17:58 | 54.98117 | -2.97149 | 27872 ft | 448 kts | 334° |
| 2026-04-25 17:58 | 55.00990 | -2.99239 | 27872 ft | 448 kts | 334° |
| 2026-04-25 17:58 | 55.03831 | -3.01310 | 27798 ft | 431 kts | 334° |
| 2026-04-25 17:58 | 55.06515 | -3.03270 | 27679 ft | 407 kts | 334° |
| 2026-04-25 17:59 | 55.09035 | -3.05113 | 27579 ft | 387 kts | 334° |
| 2026-04-25 17:59 | 55.14097 | -3.08817 | 26972 ft | 362 kts | 334° |
| 2026-04-25 17:59 | 55.16438 | -3.10526 | 26340 ft | 360 kts | 334° |
| 2026-04-25 18:00 | 55.17990 | -3.11660 | 25953 ft | 359 kts | 334° |
| 2026-04-25 18:00 | 55.20281 | -3.13340 | 25409 ft | 355 kts | 333° |
| 2026-04-25 18:00 | 55.23280 | -3.15547 | 24683 ft | 351 kts | 333° |
| 2026-04-25 18:00 | 55.24756 | -3.16634 | 24324 ft | 349 kts | 333° |
| 2026-04-25 18:01 | 55.27691 | -3.18798 | 23608 ft | 345 kts | 333° |
| 2026-04-25 18:01 | 55.29180 | -3.19897 | 23244 ft | 343 kts | 333° |
| 2026-04-25 18:01 | 55.31359 | -3.21441 | 23036 ft | 330 kts | 333° |
| 2026-04-25 18:01 | 55.33425 | -3.22974 | 22947 ft | 314 kts | 333° |
| 2026-04-25 18:02 | 55.35394 | -3.24444 | 22865 ft | 300 kts | 333° |
| 2026-04-25 18:02 | 55.37268 | -3.25842 | 22774 ft | 287 kts | 332° |
| 2026-04-25 18:02 | 55.39088 | -3.27200 | 22484 ft | 282 kts | 332° |
| 2026-04-25 18:02 | 55.40850 | -3.28515 | 22078 ft | 282 kts | 332° |
| 2026-04-25 18:03 | 55.42657 | -3.29863 | 21705 ft | 281 kts | 332° |
| 2026-04-25 18:03 | 55.44456 | -3.31205 | 21340 ft | 279 kts | 332° |
| 2026-04-25 18:03 | 55.46237 | -3.32533 | 20976 ft | 277 kts | 332° |
| 2026-04-25 18:03 | 55.48010 | -3.33856 | 20614 ft | 276 kts | 332° |
| 2026-04-25 18:04 | 55.49698 | -3.35401 | 20244 ft | 270 kts | 322° |
| 2026-04-25 18:04 | 55.51176 | -3.37404 | 19890 ft | 266 kts | 316° |
| 2026-04-25 18:04 | 55.52552 | -3.39562 | 19533 ft | 264 kts | 313° |
| 2026-04-25 18:04 | 55.53891 | -3.41765 | 19176 ft | 262 kts | 313° |
| 2026-04-25 18:05 | 55.55223 | -3.43960 | 18821 ft | 261 kts | 313° |
| 2026-04-25 18:05 | 55.56548 | -3.46141 | 18469 ft | 260 kts | 313° |
| 2026-04-25 18:05 | 55.57870 | -3.48318 | 18117 ft | 258 kts | 313° |
| 2026-04-25 18:05 | 55.59153 | -3.50426 | 17775 ft | 257 kts | 313° |
| 2026-04-25 18:06 | 55.60473 | -3.52594 | 17425 ft | 255 kts | 313° |
| 2026-04-25 18:06 | 55.61772 | -3.54727 | 17078 ft | 254 kts | 313° |
| 2026-04-25 18:06 | 55.62945 | -3.56657 | 16766 ft | 253 kts | 314° |
| 2026-04-25 18:06 | 55.64281 | -3.58576 | 16415 ft | 255 kts | 324° |
| 2026-04-25 18:07 | 55.66015 | -3.59392 | 16009 ft | 267 kts | 357° |
| 2026-04-25 18:07 | 55.67813 | -3.58468 | 15701 ft | 273 kts | 21° |
| 2026-04-25 18:07 | 55.69481 | -3.56842 | 15363 ft | 274 kts | 26° |
| 2026-04-25 18:07 | 55.71111 | -3.55109 | 15009 ft | 274 kts | 27° |
| 2026-04-25 18:08 | 55.72737 | -3.53371 | 14675 ft | 272 kts | 27° |
| 2026-04-25 18:08 | 55.74216 | -3.51254 | 14274 ft | 279 kts | 50° |
| 2026-04-25 18:08 | 55.74907 | -3.48107 | 13934 ft | 281 kts | 82° |
| 2026-04-25 18:08 | 55.74892 | -3.44674 | 13640 ft | 278 kts | 95° |
| 2026-04-25 18:09 | 55.74712 | -3.41385 | 13287 ft | 278 kts | 96° |
| 2026-04-25 18:09 | 55.74506 | -3.37982 | 12947 ft | 276 kts | 97° |
| 2026-04-25 18:09 | 55.74299 | -3.34596 | 12611 ft | 275 kts | 97° |
| 2026-04-25 18:09 | 55.74167 | -3.32427 | 12361 ft | 276 kts | 97° |
| 2026-04-25 18:10 | 55.73891 | -3.27925 | 12165 ft | 271 kts | 97° |
| 2026-04-25 18:10 | 55.73700 | -3.24615 | 12155 ft | 268 kts | 93° |
| 2026-04-25 18:10 | 55.74107 | -3.21413 | 11929 ft | 270 kts | 59° |
| 2026-04-25 18:10 | 55.75408 | -3.19141 | 11770 ft | 258 kts | 23° |
| 2026-04-25 18:11 | 55.77092 | -3.18545 | 11500 ft | 244 kts | 349° |
| 2026-04-25 18:11 | 55.78574 | -3.19734 | 11196 ft | 232 kts | 313° |
| 2026-04-25 18:11 | 55.79281 | -3.22235 | 11152 ft | 235 kts | 277° |
| 2026-04-25 18:11 | 55.78993 | -3.25160 | 11185 ft | 250 kts | 249° |
| 2026-04-25 18:12 | 55.78153 | -3.27944 | 11206 ft | 260 kts | 242° |
| 2026-04-25 18:12 | 55.77202 | -3.30702 | 11205 ft | 262 kts | 240° |
| 2026-04-25 18:12 | 55.76254 | -3.33416 | 11201 ft | 253 kts | 240° |
| 2026-04-25 18:12 | 55.75347 | -3.36010 | 11193 ft | 242 kts | 240° |
| 2026-04-25 18:13 | 55.74476 | -3.38501 | 11188 ft | 233 kts | 240° |
| 2026-04-25 18:13 | 55.73638 | -3.40896 | 11073 ft | 232 kts | 240° |
| 2026-04-25 18:13 | 55.72771 | -3.43372 | 10633 ft | 239 kts | 240° |
| 2026-04-25 18:14 | 55.70969 | -3.48515 | 9740 ft | 252 kts | 240° |
| 2026-04-25 18:14 | 55.70422 | -3.51433 | 9265 ft | 254 kts | 268° |
| 2026-04-25 18:14 | 55.70913 | -3.54472 | 8812 ft | 261 kts | 300° |
| 2026-04-25 18:14 | 55.72131 | -3.56854 | 8392 ft | 268 kts | 314° |
| 2026-04-25 18:15 | 55.73549 | -3.59024 | 7881 ft | 271 kts | 317° |
| 2026-04-25 18:15 | 55.74994 | -3.61169 | 7332 ft | 272 kts | 317° |
| 2026-04-25 18:15 | 55.76448 | -3.63327 | 6780 ft | 272 kts | 317° |
| 2026-04-25 18:15 | 55.78003 | -3.65249 | 6208 ft | 276 kts | 334° |
| 2026-04-25 18:16 | 55.79894 | -3.65574 | 5898 ft | 275 kts | 8° |
| 2026-04-25 18:16 | 55.81539 | -3.64043 | 5805 ft | 266 kts | 41° |
| 2026-04-25 18:16 | 55.82283 | -3.58124 | 5699 ft | 256 kts | 108° |
| 2026-04-25 18:17 | 55.81508 | -3.55223 | 5435 ft | 258 kts | 120° |
| 2026-04-25 18:17 | 55.80266 | -3.53041 | 4963 ft | 257 kts | 152° |
| 2026-04-25 18:17 | 55.78543 | -3.52457 | 4518 ft | 255 kts | 187° |
| 2026-04-25 18:17 | 55.77011 | -3.53584 | 4096 ft | 256 kts | 219° |
| 2026-04-25 18:18 | 55.76034 | -3.56225 | 3785 ft | 252 kts | 255° |
| 2026-04-25 18:18 | 55.76106 | -3.59202 | 3726 ft | 240 kts | 288° |
| 2026-04-25 18:18 | 55.76783 | -3.61858 | 3731 ft | 234 kts | 298° |
| 2026-04-25 18:18 | 55.77556 | -3.64375 | 3718 ft | 230 kts | 299° |
| 2026-04-25 18:19 | 55.78329 | -3.66846 | 3712 ft | 230 kts | 299° |
| 2026-04-25 18:19 | 55.79116 | -3.69292 | 3699 ft | 231 kts | 304° |
| 2026-04-25 18:19 | 55.80399 | -3.70966 | 3645 ft | 229 kts | 342° |
| 2026-04-25 18:19 | 55.81948 | -3.70867 | 3669 ft | 222 kts | 19° |
| 2026-04-25 18:20 | 55.83192 | -3.69515 | 3694 ft | 206 kts | 39° |
| 2026-04-25 18:20 | 55.84147 | -3.67712 | 3687 ft | 196 kts | 50° |
| 2026-04-25 18:20 | 55.84939 | -3.65763 | 3581 ft | 193 kts | 55° |
| 2026-04-25 18:20 | 55.85671 | -3.63780 | 3340 ft | 191 kts | 57° |
| 2026-04-25 18:21 | 55.86445 | -3.61811 | 3141 ft | 201 kts | 54° |
| 2026-04-25 18:21 | 55.87238 | -3.59723 | 2818 ft | 204 kts | 56° |
| 2026-04-25 18:21 | 55.88008 | -3.57595 | 2566 ft | 203 kts | 58° |
| 2026-04-25 18:21 | 55.88725 | -3.55527 | 2337 ft | 192 kts | 58° |
| 2026-04-25 18:22 | 55.89404 | -3.53556 | 2084 ft | 178 kts | 58° |
| 2026-04-25 18:22 | 55.89620 | -3.52927 | 1986 ft | 175 kts | 58° |
| 2026-04-25 18:22 | 55.90613 | -3.50032 | 1583 ft | 152 kts | 58° |
| 2026-04-25 18:22 | 55.91147 | -3.48476 | 1387 ft | 144 kts | 58° |
| 2026-04-25 18:23 | 55.91660 | -3.46980 | 1204 ft | 139 kts | 58° |
| 2026-04-25 18:23 | 55.92165 | -3.45507 | 1028 ft | 139 kts | 58° |
| 2026-04-25 18:23 | 55.92671 | -3.44032 | 844 ft | 139 kts | 58° |
| 2026-04-25 18:23 | 55.93197 | -3.42587 | 620 ft | 139 kts | 58° |
| 2026-04-25 18:24 | 55.93371 | -3.42074 | 539 ft | 138 kts | 59° |
| 2026-04-25 18:24 | 55.93676 | -3.41155 | 418 ft | 138 kts | 58° |
| 2026-04-25 18:24 | 55.94162 | -3.39717 | 286 ft | 131 kts | 59° |
| 2026-04-25 18:24 | 55.94616 | -3.38363 | 148 ft | 121 kts | 59° |
| 2026-04-25 18:25 | 55.94979 | -3.37289 | 143 ft | 70 kts | 58° |
| 2026-04-25 18:25 | 55.95182 | -3.36700 | 143 ft | 50 kts | 58° |
| 2026-04-25 18:25 | 55.95274 | -3.36326 | 143 ft | 12 kts | 127° |
| 2026-04-25 18:25 | 55.95234 | -3.36279 | 143 ft | 0 kts | 152° |
| 2026-04-25 18:26 | 55.95233 | -3.36279 | 143 ft | 0 kts | 152° |